createdAt,value
2023-03-13T00:01:42.165Z,0.47
2023-03-13T00:04:08.853Z,0.28
2023-03-13T00:06:38.326Z,0.13
2023-03-13T00:09:10.159Z,-0.02
2023-03-13T00:11:37.059Z,0.27
2023-03-13T00:14:05.745Z,2.36
2023-03-13T00:16:34.861Z,4.56
2023-03-13T00:19:01.635Z,6.23
2023-03-13T00:21:29.767Z,6.92
2023-03-13T00:23:59.469Z,5.78
2023-03-13T00:26:28.258Z,4.50
2023-03-13T00:28:54.696Z,3.60
2023-03-13T00:31:26.052Z,2.99
2023-03-13T00:34:01.136Z,2.53
2023-03-13T00:36:32.269Z,2.18
2023-03-13T00:38:59.846Z,1.88
2023-03-13T00:41:30.551Z,1.63
2023-03-13T00:43:58.631Z,1.40
2023-03-13T00:46:28.994Z,1.17
2023-03-13T00:48:56.811Z,0.90
2023-03-13T00:51:26.164Z,0.65
2023-03-13T00:53:54.092Z,0.43
2023-03-13T00:56:21.623Z,0.26
2023-03-13T00:58:50.012Z,0.53
2023-03-13T01:01:27.091Z,2.60
2023-03-13T01:03:58.629Z,4.98
2023-03-13T01:06:29.450Z,6.52
2023-03-13T01:08:56.474Z,7.20
2023-03-13T01:11:30.799Z,6.05
2023-03-13T01:14:01.633Z,4.69
2023-03-13T01:16:34.968Z,3.72
2023-03-13T01:19:07.333Z,3.01
2023-03-13T01:21:35.120Z,2.48
2023-03-13T01:24:01.763Z,2.11
2023-03-13T01:26:28.765Z,1.79
2023-03-13T01:28:56.311Z,1.49
2023-03-13T01:31:29.204Z,1.22
2023-03-13T01:34:00.532Z,0.98
2023-03-13T01:36:30.975Z,0.77
2023-03-13T01:39:00.705Z,0.94
2023-03-13T01:41:29.922Z,2.91
2023-03-13T01:43:57.851Z,5.01
2023-03-13T01:46:30.044Z,6.46
2023-03-13T01:49:19.753Z,6.98
2023-03-13T01:52:14.365Z,5.71
2023-03-13T01:55:15.488Z,4.41
2023-03-13T01:57:51.349Z,3.49
2023-03-13T02:00:24.394Z,2.91
2023-03-13T02:02:56.304Z,2.45
2023-03-13T02:05:28.211Z,2.04
2023-03-13T02:08:05.437Z,1.67
2023-03-13T02:10:41.851Z,1.34
2023-03-13T02:13:13.597Z,1.04
2023-03-13T02:15:41.444Z,0.82
2023-03-13T02:18:07.992Z,1.02
2023-03-13T02:20:34.536Z,2.86
2023-03-13T02:23:20.284Z,5.00
2023-03-13T02:25:50.790Z,6.79
2023-03-13T02:28:34.502Z,7.58
2023-03-13T02:31:01.611Z,6.32
2023-03-13T02:33:37.167Z,4.98
2023-03-13T02:36:06.370Z,4.02
2023-03-13T02:38:40.954Z,3.34
2023-03-13T02:41:09.373Z,2.79
2023-03-13T02:43:37.608Z,2.40
2023-03-13T02:46:13.992Z,2.06
2023-03-13T02:48:51.627Z,1.76
2023-03-13T02:51:45.392Z,1.50
2023-03-13T02:54:22.272Z,2.01
2023-03-13T02:56:56.405Z,4.44
2023-03-13T02:59:23.729Z,6.41
2023-03-13T03:01:52.121Z,7.42
2023-03-13T03:04:24.457Z,6.38
2023-03-13T03:06:52.726Z,5.06
2023-03-13T03:09:20.799Z,4.05
2023-03-13T03:11:48.054Z,3.30
2023-03-13T03:14:15.563Z,2.71
2023-03-13T03:16:42.681Z,2.25
2023-03-13T03:19:10.563Z,1.87
2023-03-13T03:21:37.985Z,1.93
2023-03-13T03:24:05.879Z,3.65
2023-03-13T03:26:32.505Z,5.68
2023-03-13T03:28:59.123Z,7.43
2023-03-13T03:31:25.684Z,8.23
2023-03-13T03:33:52.247Z,6.97
2023-03-13T03:36:22.312Z,5.53
2023-03-13T03:38:50.374Z,4.44
2023-03-13T03:41:18.662Z,3.61
2023-03-13T03:43:46.903Z,3.02
2023-03-13T03:46:14.882Z,2.55
2023-03-13T03:48:41.683Z,2.16
2023-03-13T03:51:08.382Z,2.25
2023-03-13T03:53:34.968Z,4.15
2023-03-13T03:56:02.085Z,6.28
2023-03-13T03:58:28.801Z,7.93
2023-03-13T04:00:57.502Z,8.74
2023-03-13T04:03:24.904Z,7.51
2023-03-13T04:05:51.766Z,6.16
2023-03-13T04:08:18.539Z,5.12
2023-03-13T04:10:45.281Z,4.31
2023-03-13T04:13:11.840Z,3.70
2023-03-13T04:15:40.390Z,3.18
2023-03-13T04:18:07.479Z,2.75
2023-03-13T04:20:34.673Z,3.00
2023-03-13T04:23:01.412Z,5.32
2023-03-13T04:25:27.957Z,7.42
2023-03-13T04:27:54.414Z,8.37
2023-03-13T04:30:21.389Z,7.31
2023-03-13T04:32:47.826Z,5.93
2023-03-13T04:35:14.363Z,4.89
2023-03-13T04:37:40.809Z,4.13
2023-03-13T04:40:08.636Z,3.56
2023-03-13T04:42:35.152Z,3.07
2023-03-13T04:45:01.642Z,2.66
2023-03-13T04:47:28.085Z,2.97
2023-03-13T04:49:54.575Z,5.29
2023-03-13T04:52:21.727Z,7.47
2023-03-13T04:54:50.442Z,8.88
2023-03-13T04:57:17.246Z,9.32
2023-03-13T04:59:43.823Z,7.96
2023-03-13T05:02:12.985Z,6.59
2023-03-13T05:04:40.283Z,5.50
2023-03-13T05:07:06.717Z,4.72
2023-03-13T05:09:33.309Z,4.07
2023-03-13T05:11:59.874Z,3.55
2023-03-13T05:14:26.455Z,3.15
2023-03-13T05:16:53.013Z,3.11
2023-03-13T05:19:19.436Z,4.92
2023-03-13T05:21:45.869Z,7.06
2023-03-13T05:24:12.451Z,8.33
2023-03-13T05:26:38.903Z,8.43
2023-03-13T05:29:05.394Z,7.03
2023-03-13T05:31:32.045Z,5.83
2023-03-13T05:33:58.656Z,4.93
2023-03-13T05:36:25.410Z,4.21
2023-03-13T05:38:52.048Z,4.18
2023-03-13T05:41:18.661Z,5.92
2023-03-13T05:43:45.074Z,7.64
2023-03-13T05:46:11.708Z,8.34
2023-03-13T05:48:38.191Z,7.05
2023-03-13T05:51:05.026Z,5.71
2023-03-13T05:53:31.479Z,5.29
2023-03-13T05:55:58.017Z,6.86
2023-03-13T05:58:24.682Z,8.32
2023-03-13T06:00:51.175Z,8.28
2023-03-13T06:03:17.614Z,6.78
2023-03-13T06:05:44.061Z,5.60
2023-03-13T06:08:10.488Z,5.51
2023-03-13T06:10:36.901Z,7.09
2023-03-13T06:13:18.669Z,8.48
2023-03-13T06:15:54.529Z,8.76
2023-03-13T06:18:22.770Z,7.37
2023-03-13T06:20:50.134Z,5.97
2023-03-13T06:23:16.686Z,5.50
2023-03-13T06:25:47.900Z,6.86
2023-03-13T06:28:15.584Z,8.41
2023-03-13T06:30:42.347Z,9.31
2023-03-13T06:33:09.006Z,9.37
2023-03-13T06:35:43.549Z,7.90
2023-03-13T06:38:19.818Z,6.33
2023-03-13T06:40:47.904Z,5.59
2023-03-13T06:43:14.437Z,6.69
2023-03-13T06:45:41.089Z,8.07
2023-03-13T06:48:07.486Z,8.98
2023-03-13T06:50:38.445Z,9.31
2023-03-13T06:53:05.569Z,8.10
2023-03-13T06:55:32.521Z,6.76
2023-03-13T06:58:06.388Z,6.30
2023-03-13T07:00:35.462Z,7.71
2023-03-13T07:03:02.172Z,8.94
2023-03-13T07:05:28.836Z,9.47
2023-03-13T07:07:55.337Z,8.42
2023-03-13T07:10:23.276Z,7.09
2023-03-13T07:12:51.096Z,6.53
2023-03-13T07:15:17.987Z,7.68
2023-03-13T07:17:45.195Z,8.98
2023-03-13T07:20:12.245Z,9.81
2023-03-13T07:22:38.750Z,10.04
2023-03-13T07:25:06.680Z,8.66
2023-03-13T07:27:33.177Z,7.34
2023-03-13T07:29:59.582Z,6.39
2023-03-13T07:32:31.952Z,6.69
2023-03-13T07:34:58.519Z,8.22
2023-03-13T07:37:24.952Z,9.50
2023-03-13T07:39:51.563Z,10.03
2023-03-13T07:42:17.979Z,9.18
2023-03-13T07:44:44.500Z,7.99
2023-03-13T07:47:11.564Z,7.05
2023-03-13T07:49:41.562Z,6.78
2023-03-13T07:52:07.960Z,8.22
2023-03-13T07:54:34.740Z,9.63
2023-03-13T07:57:02.862Z,10.27
2023-03-13T07:59:30.160Z,9.42
2023-03-13T08:01:56.659Z,8.22
2023-03-13T08:04:23.172Z,7.37
2023-03-13T08:06:51.165Z,7.27
2023-03-13T08:09:17.637Z,9.10
2023-03-13T08:11:44.124Z,10.47
2023-03-13T08:14:10.899Z,10.89
2023-03-13T08:16:37.922Z,9.85
2023-03-13T08:19:05.411Z,8.61
2023-03-13T08:21:35.997Z,7.71
2023-03-13T08:24:07.048Z,7.50
2023-03-13T08:26:36.638Z,8.96
2023-03-13T08:29:11.345Z,10.34
2023-03-13T08:31:44.417Z,10.74
2023-03-13T08:34:12.665Z,9.61
2023-03-13T08:36:40.389Z,8.37
2023-03-13T08:39:12.455Z,7.71
2023-03-13T08:41:42.185Z,8.95
2023-03-13T08:44:15.053Z,10.09
2023-03-13T08:46:43.454Z,10.77
2023-03-13T08:49:11.976Z,10.24
2023-03-13T08:51:40.239Z,8.90
2023-03-13T08:54:07.076Z,8.02
2023-03-13T08:56:34.246Z,9.17
2023-03-13T08:59:04.214Z,10.35
2023-03-13T09:01:34.228Z,10.69
2023-03-13T09:04:04.452Z,9.84
2023-03-13T09:06:36.766Z,8.55
2023-03-13T09:09:05.160Z,8.37
2023-03-13T09:11:36.980Z,9.71
2023-03-13T09:14:03.594Z,10.51
2023-03-13T09:16:33.544Z,10.82
2023-03-13T09:19:01.142Z,9.88
2023-03-13T09:21:31.502Z,8.43
2023-03-13T09:23:59.765Z,8.00
2023-03-13T09:26:27.947Z,9.65
2023-03-13T09:28:55.217Z,11.11
2023-03-13T09:31:29.238Z,11.59
2023-03-13T09:33:55.923Z,10.36
2023-03-13T09:36:24.633Z,9.09
2023-03-13T09:38:57.333Z,8.11
2023-03-13T09:41:52.877Z,8.04
2023-03-13T09:44:32.793Z,10.08
2023-03-13T09:47:29.456Z,11.36
2023-03-13T09:50:13.468Z,11.61
2023-03-13T09:52:41.010Z,10.40
2023-03-13T09:55:28.230Z,9.37
2023-03-13T09:58:08.781Z,9.18
2023-03-13T10:00:40.158Z,10.76
2023-03-13T10:03:38.846Z,12.09
2023-03-13T10:06:22.653Z,12.28
2023-03-13T10:08:49.102Z,10.95
2023-03-13T10:11:37.981Z,9.89
2023-03-13T10:14:28.322Z,8.99
2023-03-13T10:17:13.738Z,9.04
2023-03-13T10:19:42.818Z,11.13
2023-03-13T10:22:19.789Z,12.50
2023-03-13T10:25:06.281Z,12.73
2023-03-13T10:27:52.278Z,11.35
2023-03-13T10:30:28.438Z,10.09
2023-03-13T10:33:24.253Z,9.21
2023-03-13T10:36:20.391Z,9.25
2023-03-13T10:38:53.997Z,11.40
2023-03-13T10:41:36.427Z,12.39
2023-03-13T10:44:07.671Z,12.57
2023-03-13T10:46:40.936Z,11.41
2023-03-13T10:49:19.680Z,10.23
2023-03-13T10:52:02.589Z,9.90
2023-03-13T10:54:36.785Z,11.51
2023-03-13T10:57:18.391Z,12.39
2023-03-13T10:59:49.117Z,12.44
2023-03-13T11:02:34.804Z,11.32
2023-03-13T11:05:24.774Z,10.16
2023-03-13T11:07:53.520Z,9.62
2023-03-13T11:10:29.245Z,10.50
2023-03-13T11:12:58.166Z,11.49
2023-03-13T11:15:41.245Z,12.10
2023-03-13T11:18:46.925Z,12.66
2023-03-13T11:21:27.903Z,12.50
2023-03-13T11:24:06.596Z,11.21
2023-03-13T11:27:04.826Z,10.06
2023-03-13T11:30:05.956Z,9.64
2023-03-13T11:32:46.118Z,10.89
2023-03-13T11:35:36.605Z,12.07
2023-03-13T11:38:19.954Z,12.49
2023-03-13T11:41:12.419Z,11.70
2023-03-13T11:44:16.298Z,10.40
2023-03-13T11:47:18.552Z,9.82
2023-03-13T11:50:01.595Z,10.85
2023-03-13T11:52:47.013Z,11.59
2023-03-13T11:55:34.762Z,12.05
2023-03-13T11:58:04.236Z,12.53
2023-03-13T12:00:41.492Z,12.93
2023-03-13T12:03:27.211Z,12.79
2023-03-13T12:05:58.542Z,11.56
2023-03-13T12:08:33.682Z,10.38
2023-03-13T12:11:17.908Z,10.31
2023-03-13T12:13:55.626Z,10.96
2023-03-13T12:16:44.817Z,11.45
2023-03-13T12:19:21.712Z,12.05
2023-03-13T12:21:55.845Z,12.43
2023-03-13T12:24:34.738Z,12.79
2023-03-13T12:27:19.460Z,13.15
2023-03-13T12:29:57.338Z,13.06
2023-03-13T12:32:55.452Z,11.84
2023-03-13T12:35:34.317Z,10.47
2023-03-13T12:38:28.838Z,9.94
2023-03-13T12:41:24.030Z,10.75
2023-03-13T12:44:07.795Z,11.57
2023-03-13T12:47:12.980Z,12.20
2023-03-13T12:50:16.021Z,12.64
2023-03-13T12:53:27.409Z,12.85
2023-03-13T12:55:59.816Z,12.69
2023-03-13T12:58:46.770Z,12.76
2023-03-13T13:01:24.687Z,12.79
2023-03-13T13:04:03.670Z,12.94
2023-03-13T13:07:01.773Z,13.03
2023-03-13T13:10:08.401Z,13.11
2023-03-13T13:12:40.682Z,12.98
2023-03-13T13:15:28.231Z,11.71
2023-03-13T13:18:25.169Z,10.57
2023-03-13T13:21:06.910Z,10.92
2023-03-13T13:23:41.503Z,11.54
2023-03-13T13:26:28.961Z,12.09
2023-03-13T13:29:10.455Z,12.32
2023-03-13T13:31:50.284Z,12.59
2023-03-13T13:34:29.487Z,12.80
2023-03-13T13:37:12.229Z,12.80
2023-03-13T13:39:47.387Z,12.99
2023-03-13T13:42:30.102Z,13.13
2023-03-13T13:45:14.800Z,13.25
2023-03-13T13:47:49.926Z,13.26
2023-03-13T13:50:26.913Z,13.30
2023-03-13T13:53:46.500Z,13.30
2023-03-13T13:56:57.646Z,13.17
2023-03-13T13:59:47.595Z,13.32
2023-03-13T14:02:23.691Z,13.50
2023-03-13T14:05:15.073Z,13.53
2023-03-13T14:08:17.697Z,13.60
2023-03-13T14:11:13.718Z,13.73
2023-03-13T14:13:41.226Z,13.64
2023-03-13T14:16:36.576Z,13.75
2023-03-13T14:19:03.373Z,13.88
2023-03-13T14:21:29.866Z,13.92
2023-03-13T14:23:56.296Z,14.02
2023-03-13T14:26:26.386Z,13.99
2023-03-13T14:29:09.487Z,14.12
2023-03-13T14:31:41.747Z,13.91
2023-03-13T14:34:18.327Z,13.86
2023-03-13T14:37:14.995Z,13.88
2023-03-13T14:39:48.064Z,14.07
2023-03-13T14:42:18.012Z,14.16
2023-03-13T14:44:49.396Z,14.13
2023-03-13T14:47:16.165Z,14.24
2023-03-13T14:49:46.601Z,14.28
2023-03-13T14:52:21.927Z,14.23
2023-03-13T14:54:57.727Z,14.25
2023-03-13T14:57:27.294Z,14.36
2023-03-13T15:00:28.825Z,14.34
2023-03-13T15:03:18.341Z,14.27
2023-03-13T15:06:06.915Z,14.29
2023-03-13T15:08:38.389Z,14.55
2023-03-13T15:11:54.760Z,14.40
2023-03-13T15:14:36.948Z,14.40
2023-03-13T15:17:10.872Z,14.55
2023-03-13T15:19:37.999Z,14.72
2023-03-13T15:22:19.496Z,14.82
2023-03-13T15:24:59.633Z,14.89
2023-03-13T15:27:31.753Z,15.04
2023-03-13T15:29:58.208Z,15.13
2023-03-13T15:32:35.690Z,14.23
2023-03-13T15:35:31.915Z,12.95
2023-03-13T15:38:01.535Z,13.18
2023-03-13T15:40:30.385Z,13.63
2023-03-13T15:42:57.702Z,13.99
2023-03-13T15:45:24.303Z,13.95
2023-03-13T15:47:50.812Z,14.01
2023-03-13T15:50:21.709Z,14.12
2023-03-13T15:52:48.297Z,14.24
2023-03-13T15:55:15.341Z,14.26
2023-03-13T15:57:46.424Z,14.26
2023-03-13T16:00:24.510Z,14.33
2023-03-13T16:02:51.594Z,14.33
2023-03-13T16:05:18.485Z,14.40
2023-03-13T16:07:45.371Z,14.43
2023-03-13T16:10:31.070Z,14.48
2023-03-13T16:12:57.800Z,14.50
2023-03-13T16:15:24.276Z,14.57
2023-03-13T16:17:50.853Z,14.63
2023-03-13T16:20:21.046Z,14.66
2023-03-13T16:22:47.606Z,14.83
2023-03-13T16:25:15.414Z,14.87
2023-03-13T16:27:42.812Z,14.86
2023-03-13T16:30:23.420Z,14.93
2023-03-13T16:32:50.284Z,15.03
2023-03-13T16:35:20.229Z,15.17
2023-03-13T16:37:50.410Z,15.17
2023-03-13T16:40:27.452Z,15.18
2023-03-13T16:42:53.988Z,15.28
2023-03-13T16:45:21.439Z,15.30
2023-03-13T16:47:49.214Z,15.20
2023-03-13T16:50:36.355Z,15.30
2023-03-13T16:53:04.451Z,15.28
2023-03-13T16:55:35.645Z,15.12
2023-03-13T16:58:03.607Z,15.07
2023-03-13T17:00:35.681Z,15.28
2023-03-13T17:03:02.512Z,15.30
2023-03-13T17:05:29.232Z,15.36
2023-03-13T17:07:55.796Z,15.44
2023-03-13T17:10:27.719Z,15.45
2023-03-13T17:12:54.771Z,15.52
2023-03-13T17:15:22.838Z,15.50
2023-03-13T17:17:53.522Z,15.49
2023-03-13T17:20:28.226Z,15.47
2023-03-13T17:22:55.800Z,15.48
2023-03-13T17:25:23.315Z,15.40
2023-03-13T17:27:49.934Z,15.44
2023-03-13T17:30:29.471Z,15.54
2023-03-13T17:32:58.453Z,15.60
2023-03-13T17:35:25.185Z,15.71
2023-03-13T17:37:52.126Z,15.84
2023-03-13T17:40:28.342Z,15.44
2023-03-13T17:42:55.794Z,14.05
2023-03-13T17:45:23.852Z,13.18
2023-03-13T17:47:53.644Z,13.54
2023-03-13T17:50:27.463Z,14.18
2023-03-13T17:52:55.731Z,14.65
2023-03-13T17:55:23.498Z,14.99
2023-03-13T17:57:51.581Z,15.07
2023-03-13T18:00:31.354Z,15.10
2023-03-13T18:03:00.373Z,15.19
2023-03-13T18:05:27.116Z,15.25
2023-03-13T18:07:57.168Z,15.19
2023-03-13T18:10:27.475Z,15.14
2023-03-13T18:12:55.578Z,15.08
2023-03-13T18:15:25.776Z,15.15
2023-03-13T18:17:53.304Z,15.12
2023-03-13T18:20:24.928Z,15.16
2023-03-13T18:22:53.476Z,15.14
2023-03-13T18:25:19.975Z,15.23
2023-03-13T18:27:47.164Z,15.38
2023-03-13T18:30:23.332Z,15.47
2023-03-13T18:32:50.856Z,15.46
2023-03-13T18:35:18.160Z,15.61
2023-03-13T18:37:47.647Z,15.54
2023-03-13T18:40:19.170Z,15.70
2023-03-13T18:42:46.324Z,15.86
2023-03-13T18:45:16.823Z,15.91
2023-03-13T18:47:47.433Z,16.11
2023-03-13T18:50:31.628Z,16.12
2023-03-13T18:52:59.679Z,16.19
2023-03-13T18:55:30.139Z,16.08
2023-03-13T18:57:59.560Z,16.09
2023-03-13T19:00:30.061Z,16.20
2023-03-13T19:02:56.734Z,16.30
2023-03-13T19:05:23.894Z,16.40
2023-03-13T19:07:53.496Z,16.47
2023-03-13T19:10:28.357Z,16.54
2023-03-13T19:12:56.309Z,16.65
2023-03-13T19:15:28.367Z,16.51
2023-03-13T19:17:57.654Z,15.16
2023-03-13T19:20:24.716Z,14.13
2023-03-13T19:22:51.445Z,14.34
2023-03-13T19:25:19.146Z,14.83
2023-03-13T19:27:47.897Z,15.20
2023-03-13T19:30:23.938Z,15.35
2023-03-13T19:32:51.292Z,15.45
2023-03-13T19:35:20.399Z,15.38
2023-03-13T19:37:47.808Z,15.39
2023-03-13T19:40:22.534Z,15.39
2023-03-13T19:42:49.184Z,15.48
2023-03-13T19:45:17.084Z,15.46
2023-03-13T19:47:44.037Z,15.59
2023-03-13T19:50:26.996Z,15.65
2023-03-13T19:52:53.558Z,15.65
2023-03-13T19:55:20.212Z,15.57
2023-03-13T19:57:46.991Z,15.63
2023-03-13T20:00:27.392Z,15.58
2023-03-13T20:02:54.634Z,15.70
2023-03-13T20:05:22.092Z,15.61
2023-03-13T20:07:53.401Z,15.61
2023-03-13T20:10:21.815Z,15.73
2023-03-13T20:12:48.349Z,15.62
2023-03-13T20:15:16.871Z,15.73
2023-03-13T20:17:43.363Z,15.67
2023-03-13T20:20:10.882Z,15.66
2023-03-13T20:22:37.476Z,15.71
2023-03-13T20:25:04.931Z,15.84
2023-03-13T20:27:33.856Z,15.84
2023-03-13T20:30:02.024Z,15.88
2023-03-13T20:32:28.799Z,15.95
2023-03-13T20:34:57.291Z,15.94
2023-03-13T20:37:26.177Z,15.81
2023-03-13T20:39:52.851Z,15.87
2023-03-13T20:42:20.485Z,15.91
2023-03-13T20:44:47.094Z,15.75
2023-03-13T20:47:14.162Z,15.72
2023-03-13T20:49:40.884Z,15.68
2023-03-13T20:52:07.515Z,15.66
2023-03-13T20:54:34.180Z,15.68
2023-03-13T20:57:01.896Z,15.68
2023-03-13T20:59:28.417Z,15.67
2023-03-13T21:01:55.145Z,15.75
2023-03-13T21:04:21.898Z,15.70
2023-03-13T21:06:49.446Z,15.67
2023-03-13T21:09:16.298Z,15.78
2023-03-13T21:11:42.765Z,15.87
2023-03-13T21:14:09.335Z,15.77
2023-03-13T21:16:35.852Z,15.76
2023-03-13T21:19:02.349Z,15.90
2023-03-13T21:21:28.881Z,15.81
2023-03-13T21:23:55.359Z,15.64
2023-03-13T21:26:22.090Z,15.64
2023-03-13T21:28:48.524Z,15.56
2023-03-13T21:31:18.296Z,15.58
2023-03-13T21:33:46.694Z,15.59
2023-03-13T21:36:16.807Z,15.54
2023-03-13T21:38:44.391Z,15.53
2023-03-13T21:41:14.959Z,15.68
2023-03-13T21:43:43.022Z,15.70
2023-03-13T21:46:15.389Z,15.71
2023-03-13T21:51:16.355Z,15.84
2023-03-13T21:53:43.876Z,15.84
2023-03-13T21:56:14.694Z,15.86
2023-03-13T21:58:44.970Z,15.90
2023-03-13T22:01:13.464Z,15.83
2023-03-13T22:03:42.911Z,15.83
2023-03-13T22:06:28.032Z,15.77
2023-03-13T22:08:54.796Z,15.67
2023-03-13T22:11:21.842Z,15.71
2023-03-13T22:13:48.595Z,15.87
2023-03-13T22:16:15.051Z,15.77
2023-03-13T22:18:42.585Z,15.79
2023-03-13T22:21:09.713Z,15.88
2023-03-13T22:23:36.291Z,16.02
2023-03-13T22:26:03.459Z,16.02
2023-03-13T22:28:30.259Z,16.10
2023-03-13T22:31:01.184Z,16.08
2023-03-13T22:33:30.479Z,15.93
2023-03-13T22:35:57.674Z,15.90
2023-03-13T22:38:24.591Z,15.96
2023-03-13T22:41:04.244Z,15.88
2023-03-13T22:43:30.749Z,15.91
2023-03-13T22:45:58.513Z,15.84
2023-03-13T22:48:26.279Z,15.77
2023-03-13T22:51:08.790Z,15.88
2023-03-13T22:53:39.348Z,15.87
2023-03-13T22:56:09.351Z,15.82
2023-03-13T22:58:36.984Z,15.93
2023-03-13T23:01:10.295Z,15.96
2023-03-13T23:03:36.757Z,15.85
2023-03-13T23:06:13.318Z,15.88
2023-03-13T23:08:39.776Z,16.00
2023-03-13T23:11:06.542Z,15.99
2023-03-13T23:13:33.300Z,15.95
2023-03-13T23:16:00.152Z,16.00
2023-03-13T23:18:27.956Z,16.06
2023-03-13T23:20:54.976Z,15.16
2023-03-13T23:23:21.854Z,14.19
2023-03-13T23:25:48.379Z,14.37
2023-03-13T23:28:14.929Z,14.91
2023-03-13T23:30:41.556Z,15.18
2023-03-13T23:33:07.999Z,15.33
2023-03-13T23:35:37.818Z,15.40
2023-03-13T23:38:04.502Z,15.54
2023-03-13T23:40:32.015Z,15.74
2023-03-13T23:42:58.633Z,15.72
2023-03-13T23:45:25.170Z,15.72
2023-03-13T23:47:52.935Z,15.70
2023-03-13T23:50:19.833Z,15.82
2023-03-13T23:52:46.413Z,15.78
2023-03-13T23:55:13.214Z,15.78
2023-03-13T23:57:39.815Z,15.80
